Airfield :
LOGIN :

Register | Disclaimer

   EN    FR    IT 

 










Legend :    VFR   Marginal VFR   IFR   Intensive IFR   Very Intensive IFR
Visi :
Ceiling :
>= 8 km
>= 3000ft
5 to 8 km
1000 to 3000 ft
1500m to 5 km
500 to 1000 ft
800 to 1500m
200 to 500 ft
< 800m
< 200 ft
Symbols :   Thunderstorms  Fog  Heavy snow  Heavy precipitations  Wind > 20 kt
SIGMETs :     Misc.  Thunderstorms  Icing  Turbulence  Mountain Waves  Volcanic Ashes






- Airport Elevation : 433 ft
- IATA code : CCF


LFMK - Carcassonne

CURRENT METAR :
  • 231300Z AUTO 28014KT 240V330 9999 FEW035 BKN058 BKN070 12/M01 Q1016 TEMPO 30020G32KT

EXPIRED METARs :
  • 231230Z AUTO 28016KT 230V320 9999 FEW027/// SCT062/// BKN072/// //////TCU 13/01 Q1016 TEMPO 30020G32KT BKN080
  • 231200Z AUTO 30019KT 260V330 9999 FEW037 BKN062 BKN078 12/M02 Q1016 TEMPO 30020G32KT
  • 231130Z AUTO 28017G29KT 250V310 9999 FEW049 SCT058 BKN072 12/M02 Q1016 NOSIG
  • 231100Z AUTO 30015KT 9999 FEW042 BKN062 BKN088 13/M00 Q1016 TEMPO 30020G32KT
  • 231030Z AUTO 30015KT 260V330 9999 FEW026 BKN052 BKN066 11/M01 Q1017 TEMPO 30020G32KT
  • 231000Z AUTO 29015KT 9999 BKN060 BKN072 10/M02 Q1017 BECMG 30015G25KT
  • 230930Z AUTO 29014KT 9999 BKN052 11/M01 Q1017 BECMG 30015G25KT
  • 230900Z AUTO 29014KT 9999 SCT048 BKN094 11/M01 Q1017 BECMG 30015G25KT

TAF TAF LFMK
Valid from the 23 at 09:00 until the 24 at 09:00 UTC


230800Z 2309/2409 28013KT CAVOK
BECMG 2309/2311 30015G25KT
TEMPO 2312/2318 30020G32KT
PROB30
TEMPO 2312/2320 BKN080
BECMG 2319/2321 28010KT
BECMG 2404/2406 BKN060
BECMG 2406/2408 29017G27KT



MET'MAP, your aeronautical weather chart ! - Copyright ORBIFLY December 2007 - Disclaimer

ORBIFLY MET'MAP TEAM :

Programming & Development : Alexandra Zaïnal
Original concept : Baudouin d'Aumeries
Technical & hardware support : Manuel Goepfert
Assistance : Marc-Olivier Méhu




SOURCES & CREDITS :

   NOAA